Time;durP1;ratioP1;P1;durP2;ratioP2;P2;SDS_P1;SDS_P2;PMS_P1;PMS_P2;Temp;Humidity;BMP_temperature;BMP_pressure;BME280_temperature;BME280_humidity;BME280_pressure;Samples;Min_cycle;Max_cycle;Signal;HPM_P1;HPM_P2
2022/06/03 00:00:21;;;;;;;22.75;13.25;;;;;;;22.83;66.79;100709.19;5014715;28;20471;-82
2022/06/03 00:03:28;;;;;;;34.22;12.98;;;;;;;22.81;68.85;100703.06;5014595;28;20014;-82
2022/06/03 00:06:09;;;;;;;24.13;12.30;;;;;;;22.84;67.64;100702.66;5001011;28;20030;-82
2022/06/03 00:08:56;;;;;;;27.35;10.35;;;;;;;22.88;65.12;100701.19;5015033;28;20022;-81
2022/06/03 00:11:37;;;;;;;37.13;9.15;;;;;;;22.85;63.96;100690.63;5016683;28;20117;-82
2022/06/03 00:14:27;;;;;;;22.08;8.07;;;;;;;22.84;62.85;100691.69;5016339;28;20184;-82
2022/06/03 00:16:56;;;;;;;42.30;8.65;;;;;;;22.85;61.16;100690.63;5015145;28;20107;-82
2022/06/03 00:19:40;;;;;;;17.13;6.93;;;;;;;22.85;59.88;100685.13;5015097;28;20084;-81
2022/06/03 00:22:23;;;;;;;27.42;7.05;;;;;;;22.72;59.92;100666.72;5014694;28;20104;-82
2022/06/03 00:24:48;;;;;;;;;;;;;;;22.81;59.95;100684.72;4997277;28;20036;-82
2022/06/03 00:27:33;;;;;;;45.90;10.20;;;;;;;22.80;60.55;100673.94;4996248;28;19909;-82
2022/06/03 00:30:22;;;;;;;27.95;8.13;;;;;;;22.80;63.06;100671.19;5014350;28;20276;-82
2022/06/03 00:33:17;;;;;;;20.38;10.90;;;;;;;22.79;64.59;100670.34;5002064;28;20065;-82
2022/06/03 00:36:13;;;;;;;30.33;11.07;;;;;;;22.77;65.46;100689.75;5013634;28;20053;-83
2022/06/03 00:38:58;;;;;;;21.73;10.02;;;;;;;22.72;65.60;100691.41;5014209;28;20049;-83
2022/06/03 00:41:42;;;;;;;33.05;10.05;;;;;;;22.74;64.25;100695.66;5014497;28;20021;-81
2022/06/03 00:44:45;;;;;;;34.13;10.43;;;;;;;22.80;63.47;100704.97;4996081;28;20105;-83
2022/06/03 00:47:20;;;;;;;22.45;11.82;;;;;;;22.74;65.71;100700.28;5013824;28;20113;-82
2022/06/03 00:49:56;;;;;;;32.65;12.85;;;;;;;22.68;67.36;100699.19;5015011;28;20498;-82
2022/06/03 00:52:43;;;;;;;27.55;13.80;;;;;;;22.50;68.69;100685.13;4996454;28;20076;-82
2022/06/03 00:55:53;;;;;;;35.63;13.13;;;;;;;22.34;68.85;100674.47;5014307;28;20025;-82
2022/06/03 00:58:45;;;;;;;22.17;11.68;;;;;;;22.45;69.20;100693.09;4996889;28;20026;-82
2022/06/03 01:01:18;;;;;;;;;;;;;;;22.45;69.58;100712.28;5015012;28;20029;-82
2022/06/03 01:03:56;;;;;;;;;;;;;;;22.25;71.57;100708.56;4996869;28;20342;-82
2022/06/03 01:07:03;;;;;;;24.42;15.90;;;;;;;22.17;72.86;100700.47;5015739;28;19916;-82
2022/06/03 01:09:50;;;;;;;40.35;16.90;;;;;;;22.24;73.14;100699.47;4985793;28;20125;-81
2022/06/03 01:12:33;;;;;;;29.10;15.73;;;;;;;22.27;72.63;100698.22;5036073;28;20102;-81
2022/06/03 01:15:40;;;;;;;47.05;17.70;;;;;;;22.19;73.01;100703.88;5039704;28;20089;-82
2022/06/03 01:18:27;;;;;;;37.00;18.25;;;;;;;22.11;74.17;100707.56;5040053;28;20037;-80
2022/06/03 01:21:06;;;;;;;33.50;17.60;;;;;;;22.08;74.94;100718.09;5018292;28;20029;-82
2022/06/03 01:23:42;;;;;;;34.58;19.70;;;;;;;22.02;75.42;100716.97;5027775;28;20036;-83
2022/06/03 01:26:47;;;;;;;29.92;20.58;;;;;;;22.05;75.55;100721.22;5030735;28;20022;-84
2022/06/03 01:29:39;;;;;;;36.75;19.50;;;;;;;22.03;75.81;100717.84;5016306;28;20018;-82
2022/06/03 01:32:42;;;;;;;30.17;19.52;;;;;;;22.03;75.88;100712.34;5029604;28;20026;-82
2022/06/03 01:35:14;;;;;;;;;;;;;;;22.05;75.61;100723.94;5017958;28;20052;-83
2022/06/03 01:37:54;;;;;;;29.90;16.85;;;;;;;21.86;75.27;100689.00;5016484;28;19913;-83
2022/06/03 01:40:55;;;;;;;35.80;17.83;;;;;;;22.01;74.85;100720.78;5015662;28;20104;-82
2022/06/03 01:43:36;;;;;;;44.60;18.45;;;;;;;22.01;74.84;100726.25;4978348;28;20061;-82
2022/06/03 01:46:29;;;;;;;43.10;19.40;;;;;;;22.00;74.84;100723.72;5015585;28;20029;-83
2022/06/03 01:48:57;;;;;;;36.30;17.60;;;;;;;21.96;74.75;100731.47;4997958;28;20021;-83
2022/06/03 01:52:04;;;;;;;35.10;17.83;;;;;;;21.90;75.02;100734.97;5015511;28;20085;-83
2022/06/03 01:55:20;;;;;;;34.78;16.83;;;;;;;21.89;74.31;100732.47;5015853;28;20069;-81
2022/06/03 01:58:09;;;;;;;29.27;15.38;;;;;;;21.84;73.41;100737.63;4916658;29;20040;-83
2022/06/03 02:00:38;;;;;;;30.77;15.13;;;;;;;21.77;73.01;100739.47;4992835;28;20037;-83
2022/06/03 02:03:25;;;;;;;24.50;14.48;;;;;;;21.79;72.59;100740.09;5015187;28;20022;-82
2022/06/03 02:06:23;;;;;;;32.20;14.73;;;;;;;21.76;72.54;100737.75;4997710;28;20029;-82
2022/06/03 02:08:48;;;;;;;36.08;13.48;;;;;;;21.79;72.17;100737.38;5014935;28;20021;-83
2022/06/03 02:11:32;;;;;;;32.00;13.60;;;;;;;21.76;71.98;100743.22;5014909;28;20864;-83
2022/06/03 02:14:19;;;;;;;36.05;13.23;;;;;;;21.75;71.22;100741.53;4997621;28;20022;-83
2022/06/03 02:16:56;;;;;;;37.03;9.90;;;;;;;21.73;70.03;100735.41;5014962;28;20030;-82
2022/06/03 02:19:32;;;;;;;25.90;8.65;;;;;;;21.68;65.85;100736.81;5014893;28;20109;-82
2022/06/03 02:22:34;;;;;;;40.28;11.23;;;;;;;21.76;65.66;100754.19;5014868;28;20022;-83
2022/06/03 02:25:23;;;;;;;30.33;8.95;;;;;;;21.71;66.23;100749.31;5013603;28;20033;-83
2022/06/03 02:28:07;;;;;;;39.00;9.25;;;;;;;21.71;65.92;100752.88;5014551;28;20026;-83
2022/06/03 02:30:41;;;;;;;27.25;8.32;;;;;;;21.75;65.56;100750.59;5014675;28;20028;-84
2022/06/03 02:33:41;;;;;;;29.88;8.40;;;;;;;21.83;65.21;100746.91;5014574;28;20030;-83
2022/06/03 02:36:49;;;;;;;30.52;8.95;;;;;;;21.82;64.95;100758.88;5014572;28;20034;-83
2022/06/03 02:39:45;;;;;;;30.98;8.48;;;;;;;21.83;64.99;100760.59;5014473;28;20018;-83
2022/06/03 02:42:34;;;;;;;31.75;8.27;;;;;;;21.88;64.67;100753.50;5014401;28;20049;-83
2022/06/03 02:45:22;;;;;;;31.85;8.88;;;;;;;21.83;64.66;100755.13;5014430;28;20097;-84
2022/06/03 02:48:11;;;;;;;30.65;8.18;;;;;;;21.94;64.24;100776.53;4997003;28;20439;-84
2022/06/03 02:50:48;;;;;;;41.88;7.90;;;;;;;22.04;63.79;100774.31;4997041;28;20117;-84
2022/06/03 02:53:58;;;;;;;32.65;9.02;;;;;;;22.11;63.36;100772.47;5014352;28;20492;-84
2022/06/03 02:56:46;;;;;;;31.90;7.97;;;;;;;22.14;63.45;100780.31;5014197;28;20041;-84
2022/06/03 02:59:18;;;;;;;26.60;7.18;;;;;;;22.27;62.86;100780.44;5014053;28;20499;-84
2022/06/03 03:02:02;;;;;;;30.70;8.70;;;;;;;22.38;62.50;100781.81;5013826;28;20018;-84
2022/06/03 03:04:54;;;;;;;28.20;9.50;;;;;;;22.41;62.58;100787.75;5013861;28;20029;-83
2022/06/03 03:07:19;;;;;;;35.40;8.68;;;;;;;22.41;62.70;100790.50;5001654;28;20092;-84
2022/06/03 03:10:13;;;;;;;36.25;8.60;;;;;;;22.48;62.47;100780.41;5014933;28;20482;-83
2022/06/03 03:13:36;;;;;;;23.45;8.48;;;;;;;22.55;61.86;100788.69;5014010;28;20022;-83
2022/06/03 03:16:42;;;;;;;31.33;8.43;;;;;;;22.59;61.79;100788.13;4899423;29;20498;-83
2022/06/03 03:19:13;;;;;;;29.83;8.65;;;;;;;22.61;61.08;100798.88;4914303;29;20028;-83
2022/06/03 03:21:56;;;;;;;34.95;7.90;;;;;;;22.64;61.26;100799.31;4991793;28;20484;-81
2022/06/03 03:24:59;;;;;;;41.38;8.32;;;;;;;22.63;61.40;100805.84;5013997;28;20104;-81
2022/06/03 03:27:25;;;;;;;30.67;9.05;;;;;;;22.65;61.58;100806.53;5013650;28;20025;-81
2022/06/03 03:30:09;;;;;;;59.28;11.95;;;;;;;22.77;61.10;100802.22;5013346;28;20037;-79
2022/06/03 03:32:47;;;;;;;38.05;10.85;;;;;;;22.78;61.57;100794.84;4995601;28;20120;-80
2022/06/03 03:35:31;;;;;;;40.92;12.45;;;;;;;22.84;61.25;100798.66;5013225;28;20132;-80
2022/06/03 03:38:20;;;;;;;26.42;10.73;;;;;;;22.87;61.17;100799.13;5013050;28;20041;-80
2022/06/03 03:40:57;;;;;;;38.38;10.93;;;;;;;22.90;61.22;100797.88;4995633;28;20030;-80
2022/06/03 03:43:31;;;;;;;46.22;8.52;;;;;;;22.92;61.44;100803.97;5013103;28;20112;-81
2022/06/03 03:46:20;;;;;;;39.28;10.35;;;;;;;22.94;61.42;100799.97;5012989;28;20034;-80
2022/06/03 03:49:23;;;;;;;49.85;10.45;;;;;;;23.01;61.84;100800.03;4999805;28;20077;-85
2022/06/03 03:51:58;;;;;;;52.03;21.02;;;;;;;23.05;64.48;100802.19;4994980;28;20026;-83
2022/06/03 03:55:05;;;;;;;67.93;23.38;;;;;;;22.95;66.73;100795.34;5332012;23;20062;-83
2022/06/03 03:57:52;;;;;;;65.07;23.70;;;;;;;22.99;67.54;100803.00;5025057;28;20038;-86
2022/06/03 04:00:37;;;;;;;60.95;22.42;;;;;;;23.05;67.80;100809.56;4995477;28;20068;-79
2022/06/03 04:03:24;;;;;;;43.78;21.60;;;;;;;23.13;67.35;100809.41;5012748;28;20079;-79
2022/06/03 04:05:49;;;;;;;50.15;22.23;;;;;;;23.13;67.41;100815.72;5012596;28;20030;-80
2022/06/03 04:08:43;;;;;;;52.47;21.33;;;;;;;23.15;67.05;100818.25;5013266;28;20037;-85
2022/06/03 04:11:31;;;;;;;49.35;19.67;;;;;;;23.25;66.90;100822.34;5026388;28;20103;-82
2022/06/03 04:14:17;;;;;;;54.97;17.30;;;;;;;23.29;65.65;100825.53;5014756;28;20029;-83
2022/06/03 04:17:21;;;;;;;58.67;19.05;;;;;;;23.28;64.97;100807.38;5012235;28;20105;-79
2022/06/03 04:20:24;;;;;;;52.00;15.68;;;;;;;23.31;63.54;100801.47;4998171;28;20038;-82
2022/06/03 04:22:53;;;;;;;62.60;16.13;;;;;;;23.27;63.46;100790.06;5012468;28;20033;-80
2022/06/03 04:25:57;;;;;;;40.83;13.38;;;;;;;23.35;62.63;100775.31;5012033;28;20087;-79
2022/06/03 04:28:53;;;;;;;44.42;11.45;;;;;;;23.45;61.06;100784.06;4994318;28;20503;-86
2022/06/03 04:31:43;;;;;;;52.45;15.88;;;;;;;23.50;61.77;100772.44;4994708;28;20088;-79
2022/06/03 04:34:11;;;;;;;46.03;15.35;;;;;;;23.61;59.04;100767.22;5013335;28;20052;-80
2022/06/03 04:36:54;;;;;;;71.90;11.60;;;;;;;23.79;55.76;100772.16;4996352;28;20466;-87
2022/06/03 04:39:41;;;;;;;39.90;6.90;;;;;;;23.95;54.13;100782.72;5012746;28;20099;-84
2022/06/03 04:42:44;;;;;;;34.47;8.05;;;;;;;23.97;54.16;100780.66;4995528;28;20510;-85
2022/06/03 04:45:15;;;;;;;61.42;9.98;;;;;;;24.02;54.82;100788.25;5013949;28;20026;-89
2022/06/03 04:47:59;;;;;;;49.45;8.70;;;;;;;24.08;56.13;100787.41;5013164;28;20041;-85
2022/06/03 04:50:27;;;;;;;37.45;8.60;;;;;;;24.21;58.10;100793.81;5011707;28;20052;-79
2022/06/03 04:53:36;;;;;;;54.05;8.73;;;;;;;24.23;59.07;100801.84;5012949;28;20026;-79
2022/06/03 04:56:23;;;;;;;65.85;10.68;;;;;;;24.27;60.33;100800.38;4995196;28;20439;-79
2022/06/03 04:58:48;;;;;;;40.13;8.73;;;;;;;24.20;61.11;100808.63;5012654;28;20034;-79
2022/06/03 05:01:32;;;;;;;35.75;8.05;;;;;;;24.20;61.87;100811.38;5013017;28;20026;-79
2022/06/03 05:04:35;;;;;;;30.55;9.45;;;;;;;24.16;62.88;100804.56;5013211;28;20025;-79
2022/06/03 05:07:37;;;;;;;31.27;9.43;;;;;;;24.11;63.88;100809.00;4995639;28;20018;-80
2022/06/03 05:10:40;;;;;;;38.95;8.73;;;;;;;24.09;64.71;100819.34;5012841;28;20037;-79
2022/06/03 05:13:14;;;;;;;;;;;;;;;24.04;64.86;100813.59;5013785;28;20030;-79
2022/06/03 05:16:09;;;;;;;46.22;10.55;;;;;;;23.96;65.40;100816.56;5013056;28;19919;-80
2022/06/03 05:18:53;;;;;;;37.40;9.77;;;;;;;23.96;65.76;100814.66;5013075;28;20087;-79
2022/06/03 05:21:40;;;;;;;23.10;8.07;;;;;;;24.01;65.05;100814.03;4996297;28;20030;-81
2022/06/03 05:24:23;;;;;;;26.17;8.70;;;;;;;24.08;65.23;100820.41;5013253;28;20037;-78
2022/06/03 05:27:26;;;;;;;29.75;10.27;;;;;;;24.19;64.65;100817.06;5012734;28;20032;-82
2022/06/03 05:29:54;;;;;;;24.92;8.77;;;;;;;24.33;64.78;100827.03;5012332;28;20037;-78
2022/06/03 05:32:44;;;;;;;18.30;7.72;;;;;;;24.42;64.85;100827.69;5012013;28;20081;-78
2022/06/03 05:35:28;;;;;;;26.73;8.07;;;;;;;24.48;64.85;100835.09;5012696;28;20034;-78
2022/06/03 05:38:09;;;;;;;27.90;8.63;;;;;;;24.58;63.83;100839.13;5012544;28;20100;-78
2022/06/03 05:42:23;;;;;;;24.80;7.97;;;;;;;24.70;63.65;100837.44;4994574;28;20041;-78
2022/06/03 05:44:23;;;;;;;25.00;8.88;;;;;;;24.83;62.98;100848.44;5012498;28;20034;-78
2022/06/03 05:47:00;;;;;;;37.00;8.73;;;;;;;24.98;62.24;100845.50;5012704;28;20119;-78
2022/06/03 05:49:37;;;;;;;31.50;8.00;;;;;;;25.14;60.76;100857.94;5012153;28;20068;-77
2022/06/03 05:52:21;;;;;;;46.03;9.32;;;;;;;25.13;60.38;100842.50;5011870;28;20092;-78
2022/06/03 05:54:50;;;;;;;16.15;6.65;;;;;;;25.32;60.54;100855.38;4994843;28;20061;-78
2022/06/03 05:57:21;;;;;;;36.17;10.02;;;;;;;25.41;60.65;100860.44;5012887;28;20085;-77
2022/06/03 06:00:21;;;;;;;36.20;8.43;;;;;;;25.58;58.62;100851.75;4994865;28;20083;-79
2022/06/03 06:02:52;;;;;;;25.00;9.55;;;;;;;25.70;58.70;100845.34;5015715;28;20109;-79
2022/06/03 06:05:35;;;;;;;37.65;7.50;;;;;;;25.77;58.57;100840.66;5015966;28;20049;-79
2022/06/03 06:08:33;;;;;;;27.35;8.82;;;;;;;25.90;57.50;100846.09;5015880;28;20107;-79
2022/06/03 06:11:16;;;;;;;31.25;8.20;;;;;;;25.93;57.52;100842.88;4998968;28;20065;-79
2022/06/03 06:13:45;;;;;;;24.52;7.85;;;;;;;26.04;57.11;100838.59;5018556;28;20041;-76
2022/06/03 06:16:32;;;;;;;26.10;8.27;;;;;;;26.16;57.23;100833.25;5015858;28;20120;-77
2022/06/03 06:19:07;;;;;;;35.95;8.48;;;;;;;26.25;56.79;100830.03;5015523;28;20053;-78
2022/06/03 06:21:57;;;;;;;26.98;6.85;;;;;;;26.31;57.15;100831.88;5015285;28;20032;-78
2022/06/03 06:24:34;;;;;;;24.33;7.82;;;;;;;26.41;57.25;100820.38;5015243;28;20472;-78
2022/06/03 06:27:23;;;;;;;23.33;6.82;;;;;;;26.53;57.27;100821.34;5015270;28;20033;-79
2022/06/03 06:30:06;;;;;;;24.58;7.18;;;;;;;26.65;57.10;100816.78;5015547;28;20400;-79
2022/06/03 06:32:41;;;;;;;27.98;6.82;;;;;;;26.78;56.39;100816.69;5015255;28;20373;-79
2022/06/03 06:35:44;;;;;;;33.55;7.63;;;;;;;26.92;55.38;100822.94;5014840;28;20030;-78
2022/06/03 06:38:12;;;;;;;22.38;7.10;;;;;;;26.98;55.02;100822.03;4997398;28;20511;-79
2022/06/03 06:40:56;;;;;;;22.92;7.68;;;;;;;27.01;53.72;100816.06;5014680;28;20377;-78
2022/06/03 06:43:41;;;;;;;30.50;6.72;;;;;;;27.09;53.67;100823.22;4997460;28;20036;-79
2022/06/03 06:46:13;;;;;;;34.45;7.57;;;;;;;27.14;54.16;100820.59;5000407;28;20053;-78
2022/06/03 06:48:58;;;;;;;31.30;7.77;;;;;;;27.22;53.91;100810.09;5014857;28;20029;-79
2022/06/03 06:51:26;;;;;;;27.40;7.93;;;;;;;27.34;53.72;100807.41;5014497;28;20285;-78
2022/06/03 06:54:01;;;;;;;29.73;7.70;;;;;;;27.35;54.27;100798.06;5013652;28;20038;-78
2022/06/03 06:56:53;;;;;;;28.33;6.95;;;;;;;27.44;52.77;100805.84;4995982;28;20087;-78
2022/06/03 06:59:31;;;;;;;31.95;8.07;;;;;;;27.53;52.60;100803.59;4995986;28;20030;-79
2022/06/03 07:02:23;;;;;;;25.70;7.38;;;;;;;27.63;52.52;100792.84;5014033;28;20080;-78
2022/06/03 07:04:59;;;;;;;22.33;7.82;;;;;;;27.68;52.66;100805.97;5014299;28;20033;-79
2022/06/03 07:07:43;;;;;;;29.10;7.88;;;;;;;27.80;53.04;100795.81;5014100;28;20038;-79
2022/06/03 07:10:30;;;;;;;26.85;7.32;;;;;;;27.82;53.11;100786.22;5014578;28;20025;-81
2022/06/03 07:13:22;;;;;;;24.55;8.80;;;;;;;27.90;52.69;100796.94;4996555;28;20038;-77
2022/06/03 07:15:56;;;;;;;31.83;9.48;;;;;;;27.97;52.97;100786.66;5014641;28;20510;-78
2022/06/03 07:22:05;;;;;;;38.80;7.93;;;;;;;28.02;50.57;100784.00;5013840;28;20108;-78
2022/06/03 07:24:39;;;;;;;26.80;7.07;;;;;;;28.06;51.70;100779.75;5013954;28;20026;-79
2022/06/03 07:27:17;;;;;;;25.35;6.53;;;;;;;28.14;50.75;100784.06;5013585;28;20022;-79
2022/06/03 07:29:50;;;;;;;30.30;7.75;;;;;;;28.20;50.94;100779.50;4996026;28;20025;-79
2022/06/03 07:32:21;;;;;;;42.28;6.60;;;;;;;28.27;51.58;100788.56;5013596;28;20033;-78
2022/06/03 07:35:06;;;;;;;32.93;6.70;;;;;;;28.41;51.18;100790.88;5014039;28;20108;-79
2022/06/03 07:37:45;;;;;;;32.67;7.55;;;;;;;28.49;50.50;100786.94;5014407;28;20112;-79
2022/06/03 07:40:10;;;;;;;29.38;6.47;;;;;;;28.56;51.00;100790.44;5013718;28;20113;-80
2022/06/03 07:42:49;;;;;;;30.35;7.47;;;;;;;28.61;51.54;100788.66;5012917;28;20106;-78
2022/06/03 07:45:33;;;;;;;39.83;7.65;;;;;;;28.76;51.61;100792.88;4996096;28;20026;-77
2022/06/03 07:48:00;;;;;;;24.13;6.80;;;;;;;28.88;50.57;100793.72;5013721;28;20030;-80
2022/06/03 07:50:28;;;;;;;28.58;7.35;;;;;;;28.91;50.92;100799.63;4995865;28;20049;-79
2022/06/03 07:53:11;;;;;;;34.70;7.90;;;;;;;28.95;51.28;100792.53;5013643;28;20030;-77
2022/06/03 07:55:37;;;;;;;27.35;6.88;;;;;;;28.93;52.09;100804.91;5012829;28;20535;-78
2022/06/03 07:58:13;;;;;;;39.30;8.90;;;;;;;29.02;52.06;100795.19;5013642;28;20030;-79
2022/06/03 08:00:39;;;;;;;30.33;7.75;;;;;;;29.09;51.79;100805.06;5013493;28;20038;-79
2022/06/03 08:03:23;;;;;;;31.13;7.10;;;;;;;29.06;51.88;100811.06;5013266;28;20033;-79
2022/06/03 08:05:55;;;;;;;21.83;7.32;;;;;;;29.11;51.99;100813.94;5013363;28;20121;-79
2022/06/03 08:11:27;;;;;;;53.88;9.20;;;;;;;29.31;51.25;100819.16;5013359;28;20045;-79
2022/06/03 08:13:55;;;;;;;37.53;6.85;;;;;;;29.32;50.83;100826.41;5013137;28;20099;-79
2022/06/03 08:16:38;;;;;;;36.97;7.50;;;;;;;29.44;50.81;100840.25;5013180;28;20087;-79
2022/06/03 08:19:21;;;;;;;46.95;7.28;;;;;;;29.58;49.52;100847.19;4995532;28;20431;-80
2022/06/03 08:21:53;;;;;;;27.75;7.72;;;;;;;29.65;49.68;100847.91;5013447;28;20101;-79
2022/06/03 08:24:40;;;;;;;20.55;6.43;;;;;;;29.59;50.04;100846.13;5012441;28;20411;-79
2022/06/03 08:27:23;;;;;;;35.65;7.60;;;;;;;29.70;50.42;100850.78;5012786;28;20066;-79
2022/06/03 08:29:51;;;;;;;;;;;;;;;29.65;49.28;100853.44;5012861;28;20026;-78
2022/06/03 08:32:25;;;;;;;33.53;9.30;;;;;;;29.64;49.13;100852.59;5012516;28;19920;-78
2022/06/03 08:34:54;;;;;;;21.42;5.90;;;;;;;29.68;48.08;100858.50;5012695;28;20045;-78
2022/06/03 08:37:25;;;;;;;20.10;7.35;;;;;;;29.68;49.19;100848.28;5012524;28;20033;-78
2022/06/03 08:39:54;;;;;;;23.15;6.30;;;;;;;29.78;49.89;100839.31;5012529;28;20113;-79
2022/06/03 08:42:41;;;;;;;26.23;7.60;;;;;;;29.89;49.07;100832.91;4995064;28;20416;-80
2022/06/03 08:45:21;;;;;;;20.52;6.28;;;;;;;29.99;49.27;100823.97;5012752;28;20037;-78
2022/06/03 08:47:55;;;;;;;30.00;9.73;;;;;;;30.09;49.69;100821.41;5012476;28;20057;-77
2022/06/03 08:50:33;;;;;;;53.75;8.93;;;;;;;30.21;48.90;100828.53;5012813;28;20476;-79
2022/06/03 08:53:06;;;;;;;16.58;6.03;;;;;;;30.29;48.45;100835.63;5012416;28;20053;-78
2022/06/03 08:55:51;;;;;;;53.95;8.27;;;;;;;30.36;49.11;100830.78;4994614;28;20054;-79
2022/06/03 08:58:22;;;;;;;32.15;6.95;;;;;;;30.46;47.68;100846.78;5012601;28;20030;-78
2022/06/03 09:00:58;;;;;;;35.60;9.65;;;;;;;30.38;46.89;100836.06;5012363;28;20021;-78
2022/06/03 09:03:26;;;;;;;29.65;6.95;;;;;;;30.42;46.51;100838.16;5012427;28;20021;-79
2022/06/03 09:06:04;;;;;;;31.23;6.07;;;;;;;30.52;45.57;100854.16;5012757;28;20098;-79
2022/06/03 09:08:39;;;;;;;17.30;6.38;;;;;;;30.60;44.88;100834.28;5012610;28;20025;-79
2022/06/03 09:11:18;;;;;;;34.25;7.57;;;;;;;30.61;44.77;100841.53;4994693;28;20033;-79
2022/06/03 09:13:53;;;;;;;47.60;7.55;;;;;;;30.63;45.36;100839.34;4995061;28;20456;-78
2022/06/03 09:16:20;;;;;;;30.08;7.35;;;;;;;30.73;44.31;100839.53;5012207;28;20087;-77
2022/06/03 09:18:52;;;;;;;34.83;7.85;;;;;;;30.77;44.50;100835.97;5012605;28;20044;-78
2022/06/03 09:21:27;;;;;;;31.52;7.88;;;;;;;30.90;44.41;100842.28;5012400;28;20022;-79
2022/06/03 09:24:17;;;;;;;30.38;7.88;;;;;;;30.93;44.00;100839.84;5012293;28;20120;-78
2022/06/03 09:26:46;;;;;;;17.27;7.00;;;;;;;30.96;44.09;100839.38;5011435;28;20047;-78
2022/06/03 09:29:14;;;;;;;30.85;6.53;;;;;;;31.04;44.50;100844.50;5012595;28;20060;-79
2022/06/03 09:31:46;;;;;;;28.15;6.55;;;;;;;31.06;44.66;100842.31;5012158;28;20034;-79
2022/06/03 09:34:12;;;;;;;;;;;;;;;31.04;43.07;100852.00;5013128;28;20064;-78
2022/06/03 09:36:39;;;;;;;25.90;7.35;;;;;;;31.04;43.79;100852.81;4998923;28;19909;-78
2022/06/03 09:39:10;;;;;;;28.38;6.97;;;;;;;31.14;44.35;100875.22;5015780;28;20033;-80
2022/06/03 09:41:45;;;;;;;27.05;6.72;;;;;;;31.23;45.28;100862.59;5015945;28;20030;-78
2022/06/03 09:44:15;;;;;;;17.98;6.28;;;;;;;31.32;44.78;100868.53;5016031;28;20038;-80
2022/06/03 09:46:43;;;;;;;31.63;7.03;;;;;;;31.39;44.04;100871.16;5016064;28;20036;-79
2022/06/03 09:49:09;;;;;;;38.08;6.68;;;;;;;31.47;45.50;100863.19;5015782;28;20033;-79
2022/06/03 09:51:59;;;;;;;44.30;7.20;;;;;;;31.57;44.51;100868.94;5015725;28;20116;-79
2022/06/03 09:54:40;;;;;;;33.78;7.68;;;;;;;31.62;44.63;100868.19;5015738;28;20125;-80
2022/06/03 09:57:05;;;;;;;26.50;9.68;;;;;;;31.64;44.50;100864.06;5015866;28;20040;-80
2022/06/03 09:59:34;;;;;;;30.67;9.10;;;;;;;31.71;44.95;100863.88;5016324;28;20065;-78
2022/06/03 10:02:00;;;;;;;46.33;10.68;;;;;;;31.83;44.99;100862.59;5015946;28;20100;-79
2022/06/03 10:04:25;;;;;;;38.70;7.57;;;;;;;31.93;45.95;100855.50;5015750;28;20476;-79
2022/06/03 10:06:53;;;;;;;25.60;6.55;;;;;;;32.06;45.13;100861.53;5015561;28;20475;-79
2022/06/03 10:17:46;;;;;;;36.30;6.68;;;;;;;32.25;43.65;100865.66;5015428;28;20036;-79
2022/06/03 10:20:11;;;;;;;19.95;6.00;;;;;;;32.44;43.10;100845.81;5015389;28;20037;-79
2022/06/03 10:22:37;;;;;;;34.50;7.38;;;;;;;32.52;43.44;100848.94;5015177;28;20400;-78
2022/06/03 10:25:04;;;;;;;33.55;6.00;;;;;;;32.55;42.60;100850.34;5015143;28;20030;-78
2022/06/03 10:27:30;;;;;;;25.48;6.50;;;;;;;32.62;43.10;100831.53;5014976;28;20503;-79
2022/06/03 10:29:59;;;;;;;21.60;6.60;;;;;;;32.66;43.45;100843.81;5014980;28;20030;-79
2022/06/03 10:32:25;;;;;;;29.77;6.07;;;;;;;32.65;42.32;100836.56;5014687;28;20826;-78
2022/06/03 10:34:57;;;;;;;32.58;6.80;;;;;;;32.75;42.73;100847.81;5014637;28;20033;-79
2022/06/03 10:37:24;;;;;;;16.48;5.53;;;;;;;32.83;42.87;100852.88;5014953;28;20038;-79
2022/06/03 10:39:54;;;;;;;16.83;6.13;;;;;;;32.88;42.29;100853.75;5014703;28;20071;-79
2022/06/03 10:42:22;;;;;;;25.27;6.20;;;;;;;32.97;41.22;100856.88;5015009;28;20507;-78
2022/06/03 10:44:54;;;;;;;26.23;7.07;;;;;;;32.87;40.87;100851.25;5014358;28;20026;-80
2022/06/03 10:47:40;;;;;;;29.05;9.95;;;;;;;32.83;41.29;100847.31;5013453;28;20451;-79
2022/06/03 10:50:38;;;;;;;19.75;5.60;;;;;;;32.91;41.17;100851.53;5014943;28;20137;-79
2022/06/03 11:01:52;;;;;;;38.95;7.25;;;;;;;33.00;40.51;100856.34;5014240;28;20033;-79
2022/06/03 11:04:39;;;;;;;14.45;5.75;;;;;;;32.94;40.28;100851.00;5014311;28;20022;-79
2022/06/03 11:07:40;;;;;;;24.15;6.45;;;;;;;32.97;40.44;100865.25;5014990;28;20032;-79
2022/06/03 11:10:10;;;;;;;29.15;8.18;;;;;;;32.96;40.39;100859.97;4935020;29;20042;-79
2022/06/03 11:12:36;;;;;;;20.58;5.75;;;;;;;32.92;39.66;100854.06;5001417;28;20120;-79
2022/06/03 11:15:21;;;;;;;16.55;4.57;;;;;;;33.02;39.83;100864.47;5015685;28;20151;-79
2022/06/03 11:17:47;;;;;;;23.88;6.38;;;;;;;32.92;39.46;100854.06;5015278;28;20033;-81
2022/06/03 11:20:34;;;;;;;26.25;5.60;;;;;;;32.88;40.35;100853.75;5014895;28;20025;-80
2022/06/03 11:23:01;;;;;;;30.63;6.07;;;;;;;33.07;39.93;100856.97;5016085;28;20586;-81
2022/06/03 11:25:29;;;;;;;19.02;4.68;;;;;;;33.18;39.08;100864.31;5014598;28;20792;-80
2022/06/03 11:28:04;;;;;;;31.38;6.60;;;;;;;33.26;40.11;100860.22;5015014;28;20088;-79
2022/06/03 11:30:49;;;;;;;31.77;6.22;;;;;;;33.41;38.76;100863.09;5014011;28;20036;-80
2022/06/03 11:33:36;;;;;;;25.35;4.88;;;;;;;33.50;38.23;100871.78;5013896;28;20026;-80
2022/06/03 11:36:09;;;;;;;17.98;5.75;;;;;;;33.45;38.29;100863.41;5014111;28;20466;-79
2022/06/03 11:38:49;;;;;;;24.60;7.65;;;;;;;33.43;38.81;100869.22;5014355;28;20036;-80
2022/06/03 11:41:27;;;;;;;22.42;5.10;;;;;;;33.56;39.52;100874.34;5014136;28;20040;-78
2022/06/03 11:44:14;;;;;;;23.80;5.15;;;;;;;33.53;38.74;100882.41;5013770;28;20080;-79
2022/06/03 11:46:47;;;;;;;31.33;6.20;;;;;;;33.50;38.89;100871.78;5013597;28;20072;-78
2022/06/03 11:49:18;;;;;;;18.40;5.38;;;;;;;33.56;39.55;100865.13;5014102;28;20064;-78
2022/06/03 11:51:45;;;;;;;20.02;5.85;;;;;;;33.78;38.90;100874.22;5013564;28;20065;-79
2022/06/03 11:54:14;;;;;;;25.20;5.43;;;;;;;33.81;38.26;100868.06;5013647;28;20045;-79
2022/06/03 11:56:41;;;;;;;22.15;4.97;;;;;;;33.85;37.97;100869.22;5013910;28;20049;-78
2022/06/03 11:59:25;;;;;;;18.85;4.93;;;;;;;33.83;38.35;100860.25;5013408;28;20033;-79
2022/06/03 12:01:50;;;;;;;18.17;4.82;;;;;;;33.83;37.35;100863.06;4997855;28;20022;-78
2022/06/03 12:04:44;;;;;;;23.60;3.90;;;;;;;33.82;37.41;100866.97;4996144;28;20034;-79
2022/06/03 12:07:45;;;;;;;26.98;4.47;;;;;;;33.90;37.27;100855.28;5014170;28;20029;-79
2022/06/03 12:10:34;;;;;;;20.27;5.55;;;;;;;33.90;38.89;100860.84;5013610;28;20113;-79
2022/06/03 12:13:28;;;;;;;31.88;6.15;;;;;;;34.02;40.44;100878.22;5013597;28;20045;-81
2022/06/03 12:15:53;;;;;;;24.00;6.22;;;;;;;34.04;41.90;100884.34;4995709;28;20057;-80
2022/06/03 12:18:31;;;;;;;23.80;6.25;;;;;;;34.05;42.32;100869.28;5013403;28;20033;-79
2022/06/03 12:20:59;;;;;;;33.63;6.28;;;;;;;33.82;42.08;100872.56;5012947;28;20044;-78
2022/06/03 12:23:25;;;;;;;23.90;5.47;;;;;;;33.96;42.11;100870.09;5013442;28;20107;-78
2022/06/03 12:25:53;;;;;;;24.30;4.82;;;;;;;33.93;41.72;100861.16;5014102;28;20480;-78
2022/06/03 12:28:42;;;;;;;80.22;7.75;;;;;;;33.72;41.28;100852.97;4995021;28;20165;-78
2022/06/03 12:31:22;;;;;;;33.90;6.53;;;;;;;33.73;41.12;100876.97;5012747;28;20021;-80
2022/06/03 12:34:11;;;;;;;32.13;6.20;;;;;;;33.43;41.73;100863.66;4995683;28;20025;-79
2022/06/03 12:36:40;;;;;;;22.33;5.53;;;;;;;33.16;41.98;100872.13;5013338;28;20479;-78
2022/06/03 12:39:22;;;;;;;23.85;6.05;;;;;;;33.16;42.72;100871.28;5013101;28;20080;-80
2022/06/03 12:41:47;;;;;;;26.27;7.20;;;;;;;33.04;42.82;100876.19;5020454;28;20025;-79
2022/06/03 12:45:14;;;;;;;24.15;4.80;;;;;;;32.72;43.32;100873.41;5025399;28;20048;-78